createdAt,value
2022-12-08T00:01:14.014Z,31.15
2022-12-08T00:03:41.563Z,30.90
2022-12-08T00:06:51.479Z,32.17
2022-12-08T00:09:23.611Z,31.95
2022-12-08T00:11:52.336Z,29.63
2022-12-08T00:14:19.391Z,35.42
2022-12-08T00:16:46.290Z,35.13
2022-12-08T00:19:15.238Z,34.28
2022-12-08T00:21:42.632Z,32.88
2022-12-08T00:24:09.494Z,33.55
2022-12-08T00:26:37.536Z,33.08
2022-12-08T00:29:04.995Z,32.08
2022-12-08T00:31:32.529Z,43.08
2022-12-08T00:34:00.759Z,34.30
2022-12-08T00:36:28.042Z,33.28
2022-12-08T00:38:54.978Z,33.28
2022-12-08T00:41:43.016Z,32.90
2022-12-08T00:44:12.305Z,33.95
2022-12-08T00:46:39.249Z,28.85
2022-12-08T00:49:06.855Z,33.08
2022-12-08T00:51:34.301Z,30.25
2022-12-08T00:54:01.377Z,31.58
2022-12-08T00:56:28.152Z,34.33
2022-12-08T00:58:54.966Z,31.58
2022-12-08T01:01:22.504Z,30.25
2022-12-08T01:03:49.843Z,31.95
2022-12-08T01:06:16.794Z,27.80
2022-12-08T01:08:44.235Z,28.23
2022-12-08T01:11:15.254Z,34.70
2022-12-08T01:13:42.772Z,27.63
2022-12-08T01:16:10.479Z,30.98
2022-12-08T01:18:37.858Z,34.15
2022-12-08T01:21:08.101Z,31.52
2022-12-08T01:23:35.689Z,28.13
2022-12-08T01:26:04.032Z,36.28
2022-12-08T01:28:31.887Z,31.70
2022-12-08T01:30:59.900Z,34.92
2022-12-08T01:33:26.963Z,28.10
2022-12-08T01:35:55.561Z,30.00
2022-12-08T01:38:22.787Z,28.85
2022-12-08T01:40:49.993Z,36.42
2022-12-08T01:43:20.864Z,31.58
2022-12-08T01:45:48.495Z,34.25
2022-12-08T01:48:24.407Z,28.42
2022-12-08T01:50:54.114Z,30.92
2022-12-08T01:53:30.445Z,32.60
2022-12-08T01:56:04.900Z,36.72
2022-12-08T01:58:36.992Z,32.80
2022-12-08T02:01:07.186Z,40.00
2022-12-08T02:03:46.741Z,32.45
2022-12-08T02:06:15.425Z,44.30
2022-12-08T02:08:42.712Z,38.45
2022-12-08T02:11:11.219Z,37.28
2022-12-08T02:13:40.133Z,37.75
2022-12-08T02:16:25.571Z,43.20
2022-12-08T02:19:22.548Z,34.00
2022-12-08T02:22:02.914Z,35.22
2022-12-08T02:24:41.951Z,46.75
2022-12-08T02:27:15.265Z,42.20
2022-12-08T02:30:04.783Z,40.60
2022-12-08T02:32:48.485Z,43.88
2022-12-08T02:35:27.117Z,32.40
2022-12-08T02:37:59.727Z,34.35
2022-12-08T02:40:56.795Z,34.38
2022-12-08T02:43:42.440Z,32.08
2022-12-08T02:46:13.549Z,33.70
2022-12-08T02:48:41.707Z,33.08
2022-12-08T02:51:08.609Z,34.47
2022-12-08T02:53:36.335Z,36.55
2022-12-08T02:56:34.362Z,29.10
2022-12-08T02:59:16.351Z,37.05
2022-12-08T03:01:55.316Z,28.92
2022-12-08T03:04:44.710Z,33.45
2022-12-08T03:07:27.953Z,35.08
2022-12-08T03:09:58.029Z,35.22
2022-12-08T03:12:34.268Z,35.22
2022-12-08T03:15:09.476Z,38.67
2022-12-08T03:17:39.440Z,34.45
2022-12-08T03:20:12.282Z,33.05
2022-12-08T03:22:41.275Z,36.88
2022-12-08T03:25:12.956Z,35.20
2022-12-08T03:27:39.876Z,30.15
2022-12-08T03:30:07.687Z,34.78
2022-12-08T03:32:39.482Z,31.25
2022-12-08T03:35:11.369Z,39.08
2022-12-08T03:37:40.325Z,32.20
2022-12-08T03:40:11.935Z,32.47
2022-12-08T03:42:38.922Z,33.92
2022-12-08T03:45:06.525Z,28.90
2022-12-08T03:47:33.565Z,30.70
2022-12-08T03:50:00.389Z,30.58
2022-12-08T03:52:27.263Z,24.40
2022-12-08T03:54:54.425Z,27.52
2022-12-08T03:57:21.766Z,23.38
2022-12-08T03:59:48.820Z,23.15
2022-12-08T04:02:16.243Z,25.02
2022-12-08T04:04:43.971Z,25.58
2022-12-08T04:07:10.797Z,23.67
2022-12-08T04:09:39.007Z,27.63
2022-12-08T04:12:06.430Z,29.02
2022-12-08T04:14:33.724Z,24.02
2022-12-08T04:17:00.527Z,22.42
2022-12-08T04:19:27.469Z,23.85
2022-12-08T04:21:55.490Z,24.52
2022-12-08T04:24:22.368Z,16.80
2022-12-08T04:26:50.622Z,21.90
2022-12-08T04:29:17.576Z,23.35
2022-12-08T04:31:44.661Z,19.67
2022-12-08T04:34:11.636Z,19.42
2022-12-08T04:36:38.558Z,18.52
2022-12-08T04:39:05.682Z,18.80
2022-12-08T04:41:32.646Z,18.58
2022-12-08T04:43:59.934Z,21.60
2022-12-08T04:46:26.750Z,20.15
2022-12-08T04:48:54.038Z,25.42
2022-12-08T04:51:21.601Z,30.48
2022-12-08T04:53:48.649Z,30.45
2022-12-08T04:56:17.506Z,23.90
2022-12-08T04:58:44.904Z,24.88
2022-12-08T05:01:11.849Z,20.08
2022-12-08T05:03:38.698Z,18.92
2022-12-08T05:06:06.257Z,18.98
2022-12-08T05:08:33.484Z,19.42
2022-12-08T05:11:05.712Z,18.20
2022-12-08T05:13:33.021Z,17.33
2022-12-08T05:16:08.064Z,17.40
2022-12-08T05:18:36.161Z,19.52
2022-12-08T05:21:03.556Z,19.77
2022-12-08T05:23:31.068Z,19.08
2022-12-08T05:25:58.698Z,22.33
2022-12-08T05:28:41.182Z,21.77
2022-12-08T05:31:09.468Z,25.73
2022-12-08T05:33:36.334Z,23.00
2022-12-08T05:36:03.815Z,23.55
2022-12-08T05:38:31.119Z,24.40
2022-12-08T05:40:58.444Z,18.90
2022-12-08T05:43:25.365Z,23.90
2022-12-08T05:45:52.648Z,26.35
2022-12-08T05:48:20.105Z,23.95
2022-12-08T05:50:51.494Z,25.38
2022-12-08T05:53:20.252Z,20.77
2022-12-08T05:55:48.125Z,35.30
2022-12-08T05:58:19.255Z,24.23
2022-12-08T06:00:47.490Z,29.58
2022-12-08T06:03:16.092Z,25.63
2022-12-08T06:05:45.156Z,27.17
2022-12-08T06:08:12.716Z,29.77
2022-12-08T06:10:41.523Z,25.75
2022-12-08T06:13:08.964Z,24.58
2022-12-08T06:15:37.524Z,21.80
2022-12-08T06:18:05.163Z,23.15
2022-12-08T06:20:32.355Z,24.83
2022-12-08T06:22:59.870Z,21.58
2022-12-08T06:25:26.789Z,20.70
2022-12-08T06:27:53.675Z,28.83
2022-12-08T06:30:20.604Z,22.45
2022-12-08T06:32:47.993Z,21.02
2022-12-08T06:35:14.956Z,24.98
2022-12-08T06:37:41.785Z,28.60
2022-12-08T06:40:09.110Z,28.00
2022-12-08T06:42:45.022Z,23.50
2022-12-08T06:45:14.016Z,20.33
2022-12-08T06:47:41.898Z,20.20
2022-12-08T06:50:10.143Z,26.92
2022-12-08T06:52:45.622Z,22.52
2022-12-08T06:55:35.361Z,25.38
2022-12-08T06:58:04.022Z,24.10
2022-12-08T07:00:30.909Z,22.45
2022-12-08T07:02:57.864Z,20.88
2022-12-08T07:05:25.002Z,30.60
2022-12-08T07:07:52.013Z,25.60
2022-12-08T07:10:18.975Z,20.10
2022-12-08T07:12:46.240Z,22.08
2022-12-08T07:15:13.110Z,18.70
2022-12-08T07:17:39.943Z,20.95
2022-12-08T07:20:07.939Z,32.70
2022-12-08T07:22:35.283Z,52.88
2022-12-08T07:25:02.551Z,29.38
2022-12-08T07:27:29.494Z,31.27
2022-12-08T07:29:56.465Z,27.88
2022-12-08T07:32:24.494Z,29.08
2022-12-08T07:34:51.505Z,24.83
2022-12-08T07:37:18.405Z,25.42
2022-12-08T07:39:45.249Z,27.90
2022-12-08T07:42:12.438Z,22.27
2022-12-08T07:44:39.297Z,22.52
2022-12-08T07:47:06.130Z,29.52
2022-12-08T07:49:33.292Z,23.67
2022-12-08T07:52:00.161Z,21.52
2022-12-08T07:54:27.791Z,28.75
2022-12-08T07:56:57.975Z,31.00
2022-12-08T07:59:24.966Z,32.42
2022-12-08T08:02:13.150Z,26.15
2022-12-08T08:04:38.609Z,29.52
2022-12-08T08:07:05.495Z,30.85
2022-12-08T08:09:32.490Z,25.30
2022-12-08T08:12:28.925Z,27.33
2022-12-08T08:14:46.214Z,32.92
2022-12-08T08:17:13.216Z,35.70
2022-12-08T08:19:40.074Z,29.52
2022-12-08T08:22:07.088Z,27.60
2022-12-08T08:24:33.978Z,29.70
2022-12-08T08:27:00.949Z,28.80
2022-12-08T08:29:27.828Z,27.95
2022-12-08T08:31:54.869Z,28.25
2022-12-08T08:34:21.877Z,28.48
2022-12-08T08:36:48.783Z,28.75
2022-12-08T08:39:15.624Z,27.17
2022-12-08T08:41:42.572Z,30.17
2022-12-08T08:44:09.449Z,38.47
2022-12-08T08:46:36.815Z,31.27
2022-12-08T08:49:03.964Z,30.77
2022-12-08T08:51:30.875Z,28.92
2022-12-08T08:53:58.088Z,27.40
2022-12-08T08:56:26.075Z,28.98
2022-12-08T08:58:53.849Z,28.50
2022-12-08T09:01:23.366Z,30.15
2022-12-08T09:03:50.645Z,35.15
2022-12-08T09:06:18.139Z,42.88
2022-12-08T09:08:45.644Z,33.83
2022-12-08T09:11:13.067Z,41.25
2022-12-08T09:13:40.152Z,30.88
2022-12-08T09:16:08.645Z,34.22
2022-12-08T09:18:35.720Z,33.88
2022-12-08T09:21:13.236Z,39.83
2022-12-08T09:23:40.200Z,36.90
2022-12-08T09:26:08.291Z,32.85
2022-12-08T09:28:35.565Z,39.92
2022-12-08T09:31:02.717Z,42.15
2022-12-08T09:33:29.694Z,44.40
2022-12-08T09:35:57.076Z,42.90
2022-12-08T09:38:24.030Z,39.75
2022-12-08T09:40:53.385Z,28.63
2022-12-08T09:43:51.572Z,35.53
2022-12-08T09:46:20.425Z,44.20
2022-12-08T09:48:56.068Z,36.63
2022-12-08T09:51:30.691Z,34.75
2022-12-08T09:54:20.389Z,34.45
2022-12-08T09:56:49.206Z,34.50
2022-12-08T09:59:36.446Z,32.92
2022-12-08T10:02:10.032Z,32.58
2022-12-08T10:04:38.846Z,34.40
2022-12-08T10:07:18.025Z,26.13
2022-12-08T10:10:09.782Z,28.85
2022-12-08T10:12:48.687Z,31.90
2022-12-08T10:15:33.535Z,33.42
2022-12-08T10:18:03.400Z,37.92
2022-12-08T10:20:43.203Z,28.55
2022-12-08T10:23:12.917Z,39.17
2022-12-08T10:25:49.064Z,34.67
2022-12-08T10:28:16.056Z,39.42
2022-12-08T10:30:43.743Z,44.78
2022-12-08T10:33:16.392Z,43.80
2022-12-08T10:35:49.815Z,37.08
2022-12-08T10:38:18.422Z,39.75
2022-12-08T10:40:46.826Z,48.28
2022-12-08T10:43:25.752Z,43.45
2022-12-08T10:45:53.188Z,46.15
2022-12-08T10:48:24.670Z,46.60
2022-12-08T10:50:58.123Z,42.40
2022-12-08T10:53:28.760Z,40.38
2022-12-08T10:56:02.293Z,45.25
2022-12-08T10:58:45.798Z,40.53
2022-12-08T11:01:15.700Z,38.65
2022-12-08T11:03:59.145Z,39.17
2022-12-08T11:06:31.043Z,36.35
2022-12-08T11:09:00.442Z,36.67
2022-12-08T11:11:50.421Z,34.22
2022-12-08T11:14:33.311Z,42.90
2022-12-08T11:17:14.658Z,36.45
2022-12-08T11:19:44.052Z,36.97
2022-12-08T11:23:01.511Z,31.52
2022-12-08T11:25:28.419Z,34.70
2022-12-08T11:27:59.459Z,35.78
2022-12-08T11:30:37.847Z,32.05
2022-12-08T11:33:24.849Z,29.73
2022-12-08T11:36:14.496Z,27.63
2022-12-08T11:38:44.471Z,23.77
2022-12-08T11:41:18.137Z,21.92
2022-12-08T11:43:53.210Z,23.52
2022-12-08T11:46:32.565Z,26.80
2022-12-08T11:49:12.353Z,25.55
2022-12-08T11:52:02.008Z,21.63
2022-12-08T11:55:02.785Z,23.05
2022-12-08T11:57:30.388Z,16.88
2022-12-08T11:59:58.775Z,28.77
2022-12-08T12:02:29.963Z,16.67
2022-12-08T12:05:11.452Z,16.55
2022-12-08T12:08:01.355Z,17.42
2022-12-08T12:10:42.673Z,17.00
2022-12-08T12:13:18.675Z,18.60
2022-12-08T12:16:19.072Z,18.15
2022-12-08T12:19:02.539Z,17.23
2022-12-08T12:21:39.454Z,18.33
2022-12-08T12:24:10.957Z,16.10
2022-12-08T12:26:49.266Z,14.43
2022-12-08T12:29:18.645Z,14.73
2022-12-08T12:31:53.369Z,21.13
2022-12-08T12:34:28.123Z,20.10
2022-12-08T12:36:59.230Z,21.58
2022-12-08T12:39:29.974Z,22.33
2022-12-08T12:42:05.233Z,19.60
2022-12-08T12:44:37.797Z,23.05
2022-12-08T12:47:10.343Z,20.13
2022-12-08T12:49:43.885Z,20.02
2022-12-08T12:52:16.650Z,19.20
2022-12-08T12:54:50.609Z,22.30
2022-12-08T12:57:21.088Z,19.92
2022-12-08T12:59:55.790Z,20.98
2022-12-08T13:02:32.719Z,19.88
2022-12-08T13:05:17.116Z,24.65
2022-12-08T13:07:54.593Z,21.85
2022-12-08T13:10:32.283Z,18.83
2022-12-08T13:13:18.716Z,21.17
2022-12-08T13:16:15.478Z,18.80
2022-12-08T13:18:57.331Z,18.75
2022-12-08T13:21:31.755Z,20.77
2022-12-08T13:24:10.500Z,22.75
2022-12-08T13:26:45.487Z,27.80
2022-12-08T13:29:19.143Z,20.10
2022-12-08T13:31:55.636Z,27.05
2022-12-08T13:34:29.177Z,30.35
2022-12-08T13:37:11.606Z,27.75
2022-12-08T13:40:10.568Z,33.13
2022-12-08T13:42:40.672Z,30.90
2022-12-08T13:46:04.330Z,31.25
2022-12-08T13:57:28.877Z,37.05
2022-12-08T14:00:06.224Z,36.13
2022-12-08T14:02:39.671Z,39.05
2022-12-08T14:05:20.405Z,39.63
2022-12-08T14:07:55.173Z,37.80
2022-12-08T14:10:32.203Z,42.55
2022-12-08T14:13:05.887Z,40.20
2022-12-08T14:15:37.872Z,37.35
2022-12-08T14:18:07.128Z,40.85
2022-12-08T14:20:57.906Z,34.03
2022-12-08T14:23:22.883Z,32.78
2022-12-08T14:25:50.425Z,39.40
2022-12-08T14:28:17.546Z,38.50
2022-12-08T14:30:44.937Z,37.28
2022-12-08T14:33:19.088Z,50.05
2022-12-08T14:35:52.449Z,47.63
2022-12-08T14:38:21.100Z,40.17
2022-12-08T14:41:01.153Z,36.60
2022-12-08T14:43:30.536Z,40.40
2022-12-08T14:46:18.840Z,44.30
2022-12-08T14:48:46.249Z,36.78
2022-12-08T14:51:22.915Z,40.35
2022-12-08T14:54:00.754Z,43.40
2022-12-08T14:56:38.160Z,45.78
2022-12-08T14:59:19.852Z,41.88
2022-12-08T15:01:49.080Z,36.45
2022-12-08T15:04:24.346Z,46.83
2022-12-08T15:06:57.709Z,59.67
2022-12-08T15:09:36.789Z,54.95
2022-12-08T15:12:15.526Z,42.53
2022-12-08T15:14:55.896Z,39.85
2022-12-08T15:17:36.214Z,41.17
2022-12-08T15:20:04.773Z,54.78
2022-12-08T15:22:32.294Z,49.08
2022-12-08T15:24:59.201Z,52.10
2022-12-08T15:27:29.162Z,49.00
2022-12-08T15:29:56.002Z,48.33
2022-12-08T15:32:24.040Z,52.90
2022-12-08T15:34:51.134Z,44.45
2022-12-08T15:37:23.190Z,37.50
2022-12-08T15:39:50.931Z,34.58
2022-12-08T15:42:17.993Z,40.42
2022-12-08T15:44:51.641Z,48.85
2022-12-08T15:47:21.288Z,44.55
2022-12-08T15:49:49.814Z,45.47
2022-12-08T15:52:22.372Z,43.90
2022-12-08T15:54:49.845Z,51.30
2022-12-08T15:58:04.416Z,34.75
2022-12-08T16:00:51.381Z,41.17
2022-12-08T16:09:19.466Z,33.45
2022-12-08T16:12:07.708Z,34.88
2022-12-08T16:17:22.056Z,41.53
2022-12-08T16:19:48.811Z,54.38
2022-12-08T16:25:22.330Z,51.75
2022-12-08T16:28:05.496Z,78.15
2022-12-08T16:30:39.656Z,64.05
2022-12-08T16:33:06.719Z,58.15
2022-12-08T16:35:33.746Z,52.97
2022-12-08T16:38:01.002Z,62.58
2022-12-08T16:40:28.263Z,61.38
2022-12-08T16:42:55.289Z,65.93
2022-12-08T16:45:25.746Z,66.18
2022-12-08T16:47:55.678Z,72.70
2022-12-08T16:50:26.978Z,67.82
2022-12-08T16:53:00.675Z,70.00
2022-12-08T16:55:28.366Z,58.72
2022-12-08T16:57:56.261Z,53.10
2022-12-08T17:00:25.438Z,58.65
2022-12-08T17:02:53.502Z,68.90
2022-12-08T17:05:22.135Z,60.90
2022-12-08T17:07:51.259Z,68.53
2022-12-08T17:10:21.612Z,64.38
2022-12-08T17:12:49.035Z,60.50
2022-12-08T17:15:20.351Z,52.72
2022-12-08T17:17:47.977Z,58.83
2022-12-08T17:20:25.049Z,66.38
2022-12-08T17:22:55.486Z,59.63
2022-12-08T17:25:22.441Z,59.92
2022-12-08T17:27:50.436Z,55.60
2022-12-08T17:30:17.966Z,64.45
2022-12-08T17:32:45.474Z,58.85
2022-12-08T17:35:14.822Z,61.28
2022-12-08T17:37:43.368Z,61.70
2022-12-08T17:40:11.430Z,53.40
2022-12-08T17:42:38.847Z,71.85
2022-12-08T17:45:07.515Z,72.43
2022-12-08T17:47:34.810Z,72.60
2022-12-08T17:50:02.678Z,67.40
2022-12-08T17:52:33.473Z,67.75
2022-12-08T17:55:03.444Z,70.75
2022-12-08T17:57:31.443Z,96.03
2022-12-08T17:59:58.457Z,144.60
2022-12-08T18:02:25.857Z,94.30
2022-12-08T18:04:52.683Z,89.95
2022-12-08T18:07:19.899Z,86.90
2022-12-08T18:09:46.764Z,86.10
2022-12-08T18:12:13.654Z,69.20
2022-12-08T18:14:41.511Z,84.05
2022-12-08T18:17:08.720Z,78.78
2022-12-08T18:19:35.567Z,60.13
2022-12-08T18:22:02.878Z,76.32
2022-12-08T18:24:29.683Z,73.38
2022-12-08T18:26:57.833Z,61.97
2022-12-08T18:29:25.495Z,92.93
2022-12-08T18:31:52.664Z,91.22
2022-12-08T18:34:19.839Z,78.82
2022-12-08T18:36:47.047Z,67.40
2022-12-08T18:39:22.059Z,69.28
2022-12-08T18:41:49.141Z,84.05
2022-12-08T18:44:16.536Z,73.78
2022-12-08T18:46:43.429Z,50.55
2022-12-08T18:49:15.979Z,62.20
2022-12-08T18:51:43.525Z,46.53
2022-12-08T18:54:11.962Z,48.28
2022-12-08T18:56:39.377Z,69.47
2022-12-08T18:59:09.388Z,47.95
2022-12-08T19:01:38.546Z,45.63
2022-12-08T19:06:55.025Z,35.03
2022-12-08T19:09:22.796Z,39.38
2022-12-08T19:11:49.787Z,38.72
2022-12-08T19:14:16.741Z,41.28
2022-12-08T19:16:44.027Z,45.35
2022-12-08T19:19:10.865Z,45.28
2022-12-08T19:21:43.040Z,40.00
2022-12-08T19:24:13.111Z,45.13
2022-12-08T19:26:40.105Z,41.83
2022-12-08T19:29:07.306Z,42.00
2022-12-08T19:31:34.318Z,40.13
2022-12-08T19:34:01.315Z,40.55
2022-12-08T19:36:31.742Z,44.53
2022-12-08T19:39:17.445Z,43.38
2022-12-08T19:42:03.871Z,41.22
2022-12-08T19:44:49.290Z,39.97
2022-12-08T19:47:16.311Z,38.40
2022-12-08T19:49:43.513Z,41.63
2022-12-08T19:52:10.513Z,45.95
2022-12-08T19:54:37.998Z,41.35
2022-12-08T19:57:05.384Z,43.28
2022-12-08T19:59:32.704Z,50.08
2022-12-08T20:01:59.804Z,49.17
2022-12-08T20:04:27.637Z,43.20
2022-12-08T20:06:56.562Z,55.20
2022-12-08T20:09:24.451Z,49.28
2022-12-08T20:11:54.745Z,53.28
2022-12-08T20:14:23.319Z,52.75
2022-12-08T20:16:50.695Z,48.70
2022-12-08T20:19:17.836Z,47.40
2022-12-08T20:21:45.110Z,43.75
2022-12-08T20:24:12.074Z,48.72
2022-12-08T20:26:38.961Z,49.28
2022-12-08T20:29:05.917Z,47.67
2022-12-08T20:31:33.764Z,50.47
2022-12-08T20:34:01.536Z,51.38
2022-12-08T20:36:29.512Z,49.35
2022-12-08T20:38:57.319Z,70.60
2022-12-08T20:41:24.938Z,54.60
2022-12-08T20:43:52.520Z,70.88
2022-12-08T20:46:21.364Z,67.95
2022-12-08T20:48:49.225Z,77.15
2022-12-08T20:51:19.897Z,68.68
2022-12-08T20:53:47.919Z,64.55
2022-12-08T20:56:19.952Z,79.88
2022-12-08T20:58:48.595Z,75.88
2022-12-08T21:01:19.631Z,77.82
2022-12-08T21:03:48.651Z,65.65
2022-12-08T21:06:20.284Z,68.22
2022-12-08T21:08:47.651Z,66.75
2022-12-08T21:11:15.381Z,63.92
2022-12-08T21:13:43.479Z,63.40
2022-12-08T21:16:15.276Z,72.70
2022-12-08T21:18:42.950Z,58.58
2022-12-08T21:21:13.090Z,63.67
2022-12-08T21:23:41.744Z,60.63
2022-12-08T21:26:15.587Z,77.03
2022-12-08T21:28:43.299Z,92.65
2022-12-08T21:31:13.453Z,79.90
2022-12-08T21:33:40.680Z,73.95
2022-12-08T21:36:16.512Z,80.88
2022-12-08T21:38:44.264Z,80.90
2022-12-08T21:41:15.156Z,65.70
2022-12-08T21:43:43.311Z,70.15
2022-12-08T21:46:17.304Z,72.28
2022-12-08T21:48:44.472Z,73.97
2022-12-08T21:51:11.588Z,89.50
2022-12-08T21:53:38.400Z,78.32
2022-12-08T21:56:08.880Z,89.78
2022-12-08T21:58:36.357Z,80.13
2022-12-08T22:01:07.979Z,68.90
2022-12-08T22:03:35.663Z,87.20
2022-12-08T22:06:10.849Z,83.57
2022-12-08T22:08:38.102Z,73.65
2022-12-08T22:11:06.431Z,78.35
2022-12-08T22:13:38.719Z,67.43
2022-12-08T22:16:09.546Z,77.65
2022-12-08T22:18:37.370Z,81.00
2022-12-08T22:21:15.929Z,64.78
2022-12-08T22:23:44.038Z,85.90
2022-12-08T22:26:11.911Z,75.93
2022-12-08T22:28:40.807Z,67.75
2022-12-08T22:31:10.037Z,80.85
2022-12-08T22:33:37.620Z,78.28
2022-12-08T22:36:10.683Z,97.18
2022-12-08T22:38:38.385Z,97.53
2022-12-08T22:41:06.380Z,94.38
2022-12-08T22:43:34.025Z,78.22
2022-12-08T22:46:00.893Z,62.05
2022-12-08T22:48:28.821Z,80.90
2022-12-08T22:51:02.025Z,65.60
2022-12-08T22:53:29.265Z,55.92
2022-12-08T22:55:56.477Z,57.00
2022-12-08T22:58:23.273Z,55.08
2022-12-08T23:00:50.582Z,51.25
2022-12-08T23:03:18.277Z,43.47
2022-12-08T23:05:45.813Z,56.78
2022-12-08T23:08:15.956Z,39.08
2022-12-08T23:10:44.734Z,37.80
2022-12-08T23:13:12.977Z,50.42
2022-12-08T23:15:40.923Z,44.70
2022-12-08T23:18:08.179Z,45.60
2022-12-08T23:20:36.110Z,43.03
2022-12-08T23:23:03.188Z,45.20
2022-12-08T23:25:30.105Z,44.47
2022-12-08T23:27:57.467Z,44.83
2022-12-08T23:30:25.536Z,35.05
2022-12-08T23:32:56.598Z,31.77
2022-12-08T23:35:23.689Z,30.58
2022-12-08T23:37:50.785Z,32.70
2022-12-08T23:40:18.269Z,40.20
2022-12-08T23:42:45.260Z,31.50
2022-12-08T23:45:12.508Z,34.65
2022-12-08T23:47:39.467Z,37.45
2022-12-08T23:50:07.811Z,33.47
2022-12-08T23:52:35.206Z,31.58
2022-12-08T23:55:02.324Z,36.17
2022-12-08T23:57:29.228Z,37.90
2022-12-08T23:59:56.208Z,42.08
